Time;durP1;ratioP1;P1;durP2;ratioP2;P2;SDS_P1;SDS_P2;PMS_P1;PMS_P2;Temp;Humidity;BMP_temperature;BMP_pressure;BME280_temperature;BME280_humidity;BME280_pressure;Samples;Min_cycle;Max_cycle;Signal;HPM_P1;HPM_P2
2022/07/15 04:00:21;;;;;;;1.47;1.00;;;12.30;96.30;;;;;;6102226;23;20395;-80
2022/07/15 04:02:47;;;;;;;5.53;1.23;;;13.00;96.30;;;;;;5010024;28;20946;-79
2022/07/15 04:05:13;;;;;;;2.50;0.80;;;13.50;96.30;;;;;;5013692;28;20591;-77
2022/07/15 04:07:39;;;;;;;2.23;0.90;;;13.80;96.30;;;;;;5013268;28;20177;-78
2022/07/15 04:10:05;;;;;;;5.57;1.00;;;13.60;96.30;;;;;;5013884;28;20637;-77
2022/07/15 04:12:30;;;;;;;6.00;0.90;;;13.40;96.30;;;;;;5014346;28;20423;-81
2022/07/15 04:14:56;;;;;;;1.60;1.00;;;13.00;96.30;;;;;;5025874;28;20821;-82
2022/07/15 04:17:21;;;;;;;4.90;1.10;;;13.20;96.30;;;;;;5019801;28;20219;-78
2022/07/15 04:19:47;;;;;;;1.87;1.03;;;13.30;96.30;;;;;;5013584;28;20223;-76
2022/07/15 04:22:12;;;;;;;5.10;1.20;;;13.60;96.30;;;;;;5014341;28;20201;-76
2022/07/15 04:24:38;;;;;;;8.63;1.20;;;14.30;96.30;;;;;;5012492;28;20268;-77
2022/07/15 04:27:04;;;;;;;3.07;1.10;;;14.50;96.30;;;;;;5013857;28;20177;-79
2022/07/15 04:29:29;;;;;;;2.80;0.97;;;13.90;96.30;;;;;;5017237;28;20348;-80
2022/07/15 04:31:55;;;;;;;2.17;1.00;;;13.50;96.30;;;;;;5017784;28;20323;-76
2022/07/15 04:34:20;;;;;;;3.07;1.43;;;13.00;96.30;;;;;;5017056;28;20173;-76
2022/07/15 04:36:46;;;;;;;8.20;1.43;;;12.90;96.30;;;;;;4997057;28;20184;-78
2022/07/15 04:39:11;;;;;;;2.90;1.27;;;13.30;96.30;;;;;;4993235;28;20673;-77
2022/07/15 04:41:37;;;;;;;3.53;1.20;;;13.80;96.30;;;;;;5012490;28;20235;-77
2022/07/15 04:44:02;;;;;;;8.13;1.50;;;14.10;96.30;;;;;;5013275;28;20597;-78
2022/07/15 04:46:28;;;;;;;3.20;1.23;;;14.60;96.30;;;;;;5013152;28;20251;-77
2022/07/15 04:51:37;;;;;;;2.50;1.43;;;16.60;96.30;;;;;;5013043;28;20203;-78
2022/07/15 04:54:03;;;;;;;1.90;1.00;;;17.70;96.30;;;;;;5013035;28;20408;-77
2022/07/15 04:56:28;;;;;;;2.63;0.93;;;18.50;96.30;;;;;;5013008;28;20173;-77
2022/07/15 04:58:54;;;;;;;4.83;1.27;;;19.60;95.40;;;;;;5012463;28;20201;-77
2022/07/15 05:01:19;;;;;;;3.57;1.20;;;19.70;95.70;;;;;;5002232;28;20255;-78
2022/07/15 05:03:45;;;;;;;6.50;1.60;;;20.30;93.10;;;;;;4983822;28;20337;-79
2022/07/15 05:06:10;;;;;;;5.13;1.43;;;19.80;94.10;;;;;;4986364;28;20182;-75
2022/07/15 05:08:36;;;;;;;2.33;1.40;;;18.60;96.30;;;;;;4992402;28;20553;-74
2022/07/15 05:11:01;;;;;;;4.27;1.60;;;17.30;96.30;;;;;;4992716;28;20198;-75
2022/07/15 05:13:27;;;;;;;2.90;1.20;;;16.10;96.30;;;;;;4992695;28;20232;-75
2022/07/15 05:15:52;;;;;;;4.37;1.10;;;15.40;96.30;;;;;;4993730;28;20216;-76
2022/07/15 05:18:18;;;;;;;7.70;1.40;;;14.90;96.30;;;;;;4992898;28;20261;-75
2022/07/15 05:20:43;;;;;;;3.00;1.20;;;14.40;96.30;;;;;;4992397;28;20205;-79
2022/07/15 05:23:09;;;;;;;4.10;1.40;;;14.10;96.30;;;;;;4992898;28;20276;-76
2022/07/15 05:25:34;;;;;;;4.20;1.33;;;13.90;96.30;;;;;;4992714;28;20181;-75
2022/07/15 05:28:00;;;;;;;3.10;1.20;;;13.80;96.30;;;;;;4993612;28;20174;-77
2022/07/15 05:30:25;;;;;;;3.00;1.53;;;13.80;96.30;;;;;;4992794;28;20201;-75
2022/07/15 05:32:51;;;;;;;4.07;1.23;;;13.50;96.30;;;;;;4994930;28;20175;-76
2022/07/15 05:35:16;;;;;;;4.37;1.40;;;13.50;96.30;;;;;;4995812;28;20633;-77
2022/07/15 05:37:42;;;;;;;4.43;1.10;;;13.50;96.30;;;;;;4994345;28;20268;-75
2022/07/15 05:40:09;;;;;;;5.37;1.47;;;13.60;96.30;;;;;;4994589;28;20270;-76
2022/07/15 05:42:35;;;;;;;6.23;1.57;;;13.60;96.30;;;;;;4995896;28;20436;-76
2022/07/15 05:45:01;;;;;;;6.27;1.93;;;13.50;96.30;;;;;;4992220;28;20409;-78
2022/07/15 05:47:27;;;;;;;3.10;1.27;;;13.50;96.30;;;;;;4994066;28;20181;-76
2022/07/15 05:49:53;;;;;;;6.67;1.50;;;13.60;96.30;;;;;;4993764;28;20769;-78
2022/07/15 05:52:18;;;;;;;5.77;2.10;;;13.60;96.30;;;;;;4993864;28;20480;-75
2022/07/15 05:54:44;;;;;;;7.70;1.67;;;13.60;96.30;;;;;;4980832;28;20229;-78
2022/07/15 05:57:09;;;;;;;4.70;1.40;;;13.50;96.30;;;;;;4983218;28;20208;-81
2022/07/15 05:59:35;;;;;;;6.03;1.50;;;13.30;96.30;;;;;;4988313;28;20224;-79
2022/07/15 06:02:01;;;;;;;4.13;1.27;;;13.40;96.30;;;;;;4988195;28;20692;-81
2022/07/15 06:04:27;;;;;;;7.53;1.40;;;13.50;96.30;;;;;;4993261;28;20180;-80
2022/07/15 06:06:53;;;;;;;4.33;1.40;;;13.50;96.30;;;;;;4990197;28;20204;-81
2022/07/15 06:09:19;;;;;;;5.93;1.57;;;13.50;96.30;;;;;;4991243;28;20436;-80
2022/07/15 06:11:45;;;;;;;7.47;1.87;;;13.40;96.30;;;;;;4989515;28;20467;-81
2022/07/15 06:14:10;;;;;;;6.33;1.53;;;13.30;96.30;;;;;;4992795;28;20441;-79
2022/07/15 06:16:36;;;;;;;10.80;2.70;;;13.20;96.30;;;;;;4990723;28;20185;-81
2022/07/15 06:19:01;;;;;;;5.80;1.57;;;13.10;96.30;;;;;;4991904;28;20256;-78
2022/07/15 06:21:27;;;;;;;2.30;1.13;;;13.10;96.30;;;;;;4988543;28;20569;-80
2022/07/15 06:23:52;;;;;;;9.20;1.70;;;13.30;96.30;;;;;;4987778;28;20185;-79
2022/07/15 06:26:18;;;;;;;4.30;1.23;;;13.50;96.30;;;;;;4982154;28;20182;-80
2022/07/15 06:28:44;;;;;;;3.77;1.30;;;13.50;96.30;;;;;;4993028;28;20692;-80
2022/07/15 06:31:09;;;;;;;5.00;1.40;;;13.60;96.30;;;;;;4995944;28;20197;-80
2022/07/15 06:33:34;;;;;;;4.37;1.30;;;13.70;96.30;;;;;;4995537;28;20245;-79
2022/07/15 06:36:00;;;;;;;9.60;1.50;;;13.90;96.30;;;;;;4998515;28;20555;-79
2022/07/15 06:38:27;;;;;;;4.20;1.10;;;13.80;96.30;;;;;;4993827;28;20200;-81
2022/07/15 06:40:52;;;;;;;5.67;1.37;;;13.80;96.30;;;;;;4993639;28;20217;-79
2022/07/15 06:43:19;;;;;;;8.20;1.33;;;14.00;96.30;;;;;;4993983;28;20433;-79
2022/07/15 06:45:44;;;;;;;17.37;1.90;;;14.20;96.30;;;;;;4995572;28;20216;-79
2022/07/15 06:48:10;;;;;;;7.03;1.47;;;14.30;96.30;;;;;;4993129;28;20436;-78
2022/07/15 06:50:35;;;;;;;3.70;1.40;;;14.40;96.30;;;;;;4995270;28;20173;-78
2022/07/15 06:53:02;;;;;;;4.50;1.33;;;14.50;96.30;;;;;;4995226;28;20185;-79
2022/07/15 06:55:28;;;;;;;8.70;1.13;;;14.50;96.30;;;;;;4995794;28;20256;-78
2022/07/15 06:57:54;;;;;;;4.07;1.50;;;14.60;96.30;;;;;;4994159;28;20452;-79
2022/07/15 07:00:19;;;;;;;5.57;1.60;;;14.60;96.30;;;;;;4997408;28;20220;-79
2022/07/15 07:02:46;;;;;;;6.33;1.30;;;14.80;96.30;;;;;;5002860;28;20436;-79
2022/07/15 07:05:11;;;;;;;5.40;1.70;;;15.20;96.30;;;;;;5003114;28;20688;-80
2022/07/15 07:07:37;;;;;;;4.50;1.60;;;15.60;96.30;;;;;;5000128;28;20425;-79
2022/07/15 07:10:03;;;;;;;3.30;1.50;;;16.10;96.30;;;;;;5001602;28;20170;-79
2022/07/15 07:12:28;;;;;;;4.83;1.67;;;16.50;96.30;;;;;;5000075;28;20232;-79
2022/07/15 07:14:54;;;;;;;4.97;1.60;;;16.90;96.30;;;;;;4999875;28;20190;-79
2022/07/15 07:17:20;;;;;;;3.90;1.60;;;17.20;96.30;;;;;;4988190;28;20769;-79
2022/07/15 07:19:45;;;;;;;5.67;1.70;;;17.70;96.30;;;;;;4984269;28;20218;-79
2022/07/15 07:22:11;;;;;;;5.60;1.17;;;18.10;96.30;;;;;;4985024;28;20209;-80
2022/07/15 07:24:36;;;;;;;2.73;1.33;;;18.40;96.30;;;;;;5001021;28;20191;-80
2022/07/15 07:27:02;;;;;;;4.60;1.50;;;18.80;96.30;;;;;;5000643;28;20658;-79
2022/07/15 07:29:28;;;;;;;6.87;1.77;;;19.30;96.30;;;;;;4999212;28;20185;-79
2022/07/15 07:31:53;;;;;;;4.07;1.20;;;19.40;95.80;;;;;;5000244;28;20503;-79
2022/07/15 07:34:19;;;;;;;3.37;1.10;;;19.90;96.30;;;;;;5000557;28;20197;-79
2022/07/15 07:36:45;;;;;;;2.53;1.10;;;20.00;96.30;;;;;;5001221;28;20208;-79
2022/07/15 07:39:13;;;;;;;4.40;1.27;;;19.90;95.80;;;;;;4998393;28;20220;-80
2022/07/15 07:41:39;;;;;;;2.53;0.90;;;20.20;93.90;;;;;;5019484;28;20487;-79
2022/07/15 07:44:06;;;;;;;4.47;1.10;;;21.10;92.60;;;;;;5019270;28;20789;-79
2022/07/15 07:46:32;;;;;;;6.07;1.17;;;20.30;90.60;;;;;;5008607;28;20177;-80
2022/07/15 07:48:57;;;;;;;3.90;1.37;;;20.00;96.30;;;;;;4998524;28;20901;-80
2022/07/15 07:51:23;;;;;;;4.33;1.20;;;19.60;94.50;;;;;;5000297;28;20232;-79
2022/07/15 07:53:48;;;;;;;5.43;1.33;;;19.60;95.40;;;;;;5000141;28;20173;-82
2022/07/15 07:56:14;;;;;;;3.73;1.13;;;19.80;95.60;;;;;;4999044;28;20177;-81
2022/07/15 07:58:39;;;;;;;3.00;1.37;;;20.70;90.80;;;;;;4999806;28;20197;-80
2022/07/15 08:01:05;;;;;;;3.97;1.20;;;21.10;92.60;;;;;;4999024;28;20216;-80
2022/07/15 08:03:31;;;;;;;6.23;1.37;;;21.70;90.60;;;;;;4999208;28;20181;-81
2022/07/15 08:05:56;;;;;;;3.63;1.20;;;22.90;89.70;;;;;;4999684;28;20705;-82
2022/07/15 08:08:23;;;;;;;1.73;0.90;;;23.50;87.20;;;;;;4999751;28;20645;-81
2022/07/15 08:10:54;;;;;;;3.80;1.13;;;23.50;84.60;;;;;;5017291;28;20189;-81
2022/07/15 08:13:21;;;;;;;3.00;1.00;;;22.70;84.50;;;;;;5018855;28;20396;-81
2022/07/15 08:15:47;;;;;;;4.90;1.27;;;22.80;87.50;;;;;;5019605;28;20430;-81
2022/07/15 08:18:13;;;;;;;3.07;1.13;;;22.80;85.60;;;;;;4998384;28;20428;-80
2022/07/15 08:20:39;;;;;;;4.03;1.20;;;22.40;85.50;;;;;;4982295;28;20523;-81
2022/07/15 08:23:05;;;;;;;4.93;1.30;;;21.30;87.60;;;;;;4983987;28;20276;-80
2022/07/15 08:25:33;;;;;;;2.00;0.87;;;20.10;88.40;;;;;;4998720;28;20196;-79
2022/07/15 08:27:59;;;;;;;6.50;0.90;;;20.30;90.40;;;;;;5000326;28;20192;-79
2022/07/15 08:30:27;;;;;;;4.17;1.20;;;19.80;92.70;;;;;;4998173;28;20412;-79
2022/07/15 08:32:54;;;;;;;2.60;0.90;;;19.50;92.60;;;;;;4982268;28;20467;-79
2022/07/15 08:35:20;;;;;;;5.43;1.33;;;18.80;96.30;;;;;;4983192;28;20425;-80
2022/07/15 08:37:45;;;;;;;6.07;1.50;;;19.40;96.30;;;;;;4982013;28;20697;-79
2022/07/15 08:40:12;;;;;;;3.70;1.10;;;19.60;93.60;;;;;;4983621;28;21018;-79
2022/07/15 08:42:43;;;;;;;5.43;1.30;;;19.70;94.70;;;;;;4997316;28;20285;-79
2022/07/15 08:45:10;;;;;;;3.07;1.03;;;19.40;94.60;;;;;;4993678;28;20400;-79
2022/07/15 08:47:39;;;;;;;1.63;0.90;;;18.60;93.30;;;;;;4993345;28;20428;-76
2022/07/15 08:50:08;;;;;;;5.00;1.50;;;17.90;96.30;;;;;;4992319;28;20463;-79
2022/07/15 08:52:35;;;;;;;4.37;1.37;;;17.80;96.30;;;;;;4993365;28;20928;-77
2022/07/15 08:55:00;;;;;;;3.17;1.13;;;18.00;96.30;;;;;;4993538;28;20433;-76
2022/07/15 08:57:26;;;;;;;5.43;1.33;;;18.10;96.30;;;;;;4999030;28;20428;-80
2022/07/15 08:59:52;;;;;;;7.10;1.60;;;18.00;96.30;;;;;;4998344;28;20212;-77
2022/07/15 09:02:19;;;;;;;7.80;1.23;;;18.20;96.30;;;;;;4992979;28;20829;-77
2022/07/15 09:05:22;;;;;;;3.40;1.03;;;18.70;96.30;;;;;;4993282;28;20192;-77
2022/07/15 09:08:07;;;;;;;2.93;1.20;;;18.70;96.30;;;;;;4992900;28;20412;-80
2022/07/15 09:10:42;;;;;;;5.67;1.47;;;18.60;95.80;;;;;;4993225;28;20407;-77
2022/07/15 09:13:09;;;;;;;6.90;1.20;;;18.50;95.90;;;;;;4993132;28;20414;-77
2022/07/15 09:15:40;;;;;;;4.60;1.40;;;18.20;96.30;;;;;;4993032;28;20416;-77
2022/07/15 09:18:06;;;;;;;2.50;1.30;;;18.30;96.30;;;;;;4992787;28;20409;-77
2022/07/15 09:20:34;;;;;;;4.57;1.10;;;18.30;96.30;;;;;;4991576;28;20525;-77
2022/07/15 09:23:00;;;;;;;2.00;0.93;;;18.10;96.30;;;;;;4992554;28;20455;-78
2022/07/15 09:25:27;;;;;;;2.93;1.13;;;18.00;96.30;;;;;;4991719;28;20421;-79
2022/07/15 09:27:53;;;;;;;2.13;1.37;;;18.20;96.30;;;;;;4983998;28;20639;-77
2022/07/15 09:36:21;;;;;;;6.00;1.83;;;18.80;96.30;;;;;;4936732;29;21874;-78
2022/07/15 09:38:54;;;;;;;3.73;1.23;;;19.50;92.80;;;;;;4969585;28;20491;-81
2022/07/15 09:41:36;;;;;;;3.80;1.10;;;20.60;96.30;;;;;;4979583;28;20864;-78
2022/07/15 09:44:11;;;;;;;6.20;1.50;;;21.30;88.60;;;;;;4982304;28;20408;-78
2022/07/15 09:46:47;;;;;;;5.10;1.60;;;20.70;89.30;;;;;;4991335;28;20436;-79
2022/07/15 09:49:15;;;;;;;5.53;1.47;;;21.60;91.20;;;;;;4992169;28;20415;-77
2022/07/15 09:51:48;;;;;;;2.87;1.60;;;22.90;91.10;;;;;;4984846;28;20442;-79
2022/07/15 09:54:13;;;;;;;4.73;1.37;;;23.00;85.50;;;;;;4996361;28;20915;-80
2022/07/15 09:56:39;;;;;;;2.67;1.17;;;22.40;84.70;;;;;;4996223;28;20432;-80
2022/07/15 09:59:06;;;;;;;4.20;1.20;;;21.40;86.70;;;;;;4994827;28;20205;-79
2022/07/15 10:01:32;;;;;;;4.43;1.30;;;20.90;87.30;;;;;;4994781;28;20529;-77
2022/07/15 10:03:57;;;;;;;5.33;1.20;;;20.30;88.30;;;;;;5000470;28;20979;-80
2022/07/15 10:06:26;;;;;;;4.23;1.60;;;19.60;91.90;;;;;;5001181;28;20520;-80
2022/07/15 10:08:53;;;;;;;3.23;1.20;;;19.90;94.90;;;;;;4999213;28;20192;-77
2022/07/15 10:11:20;;;;;;;3.13;1.13;;;20.80;89.40;;;;;;4993551;28;20450;-78
2022/07/15 10:14:15;;;;;;;3.40;1.37;;;20.90;89.60;;;;;;4998358;28;20424;-79
2022/07/15 10:16:46;;;;;;;5.80;1.27;;;20.60;89.50;;;;;;5007150;28;20460;-77
2022/07/15 10:19:28;;;;;;;3.63;1.50;;;20.00;91.00;;;;;;4995476;28;20855;-77
2022/07/15 10:22:05;;;;;;;2.97;1.47;;;20.00;95.70;;;;;;4994025;28;20444;-77
2022/07/15 10:24:52;;;;;;;5.53;1.53;;;21.10;90.90;;;;;;4995923;28;20397;-78
2022/07/15 10:27:48;;;;;;;5.87;1.63;;;20.70;88.80;;;;;;4996736;28;20409;-77
2022/07/15 10:30:20;;;;;;;2.30;1.20;;;20.50;89.40;;;;;;4996103;28;20424;-78
2022/07/15 12:16:41;;;;;;;4.37;1.90;;;20.20;88.90;;;;;;5954397;23;21107;-80
2022/07/15 12:19:12;;;;;;;3.47;1.47;;;20.10;90.30;;;;;;4979538;28;20473;-80
2022/07/15 12:21:38;;;;;;;2.60;1.63;;;20.20;88.40;;;;;;4969880;28;20439;-77
2022/07/15 12:24:11;;;;;;;5.67;1.40;;;20.00;90.70;;;;;;4954575;28;20510;-77
2022/07/15 12:26:50;;;;;;;3.50;1.30;;;20.50;89.60;;;;;;4954441;28;20419;-77
2022/07/15 12:29:21;;;;;;;4.30;1.43;;;21.20;88.30;;;;;;4954833;28;20415;-77
2022/07/15 12:31:55;;;;;;;6.10;1.47;;;21.90;86.10;;;;;;4954775;28;20458;-79
2022/07/15 12:34:21;;;;;;;3.50;1.23;;;21.90;83.40;;;;;;4954706;28;20426;-78
2022/07/15 12:36:58;;;;;;;2.87;1.30;;;21.80;91.90;;;;;;4954744;29;20470;-78
2022/07/15 12:39:25;;;;;;;1.67;1.17;;;22.40;86.10;;;;;;4953929;28;20454;-78
2022/07/15 12:42:02;;;;;;;4.70;1.90;;;23.20;83.90;;;;;;4953714;28;20951;-79
2022/07/15 12:44:29;;;;;;;4.30;1.40;;;23.00;80.80;;;;;;4952656;29;20419;-77
2022/07/15 12:47:15;;;;;;;6.80;1.97;;;22.10;81.40;;;;;;4953493;28;20501;-77
2022/07/15 12:49:51;;;;;;;3.93;1.53;;;21.40;82.30;;;;;;4953289;28;20502;-77
2022/07/15 12:52:29;;;;;;;7.97;1.53;;;21.00;86.90;;;;;;4954211;28;20469;-77
2022/07/15 12:54:55;;;;;;;4.03;1.50;;;21.50;87.50;;;;;;4953185;29;20892;-77
2022/07/15 12:57:32;;;;;;;4.00;1.70;;;22.10;87.10;;;;;;4954217;28;20910;-77
2022/07/15 13:00:07;;;;;;;1.93;1.43;;;22.80;82.80;;;;;;4954481;28;20466;-77
2022/07/15 13:03:01;;;;;;;7.93;1.43;;;22.40;81.50;;;;;;4954328;28;20517;-67
2022/07/15 13:05:30;;;;;;;3.10;1.20;;;21.00;85.00;;;;;;4951620;28;20533;-67
2022/07/15 13:07:55;;;;;;;3.37;1.33;;;20.70;86.30;;;;;;4943882;29;20415;-67
2022/07/15 13:10:23;;;;;;;2.50;1.20;;;20.40;84.90;;;;;;4947050;28;20792;-67
2022/07/15 13:12:48;;;;;;;2.73;1.27;;;20.70;83.90;;;;;;4943174;29;20539;-67
2022/07/15 13:15:14;;;;;;;5.33;1.60;;;21.80;91.50;;;;;;4944979;29;20419;-69
2022/07/15 13:17:39;;;;;;;5.73;1.70;;;22.90;83.50;;;;;;4943266;29;20204;-75
2022/07/15 13:20:06;;;;;;;3.80;1.37;;;22.70;78.60;;;;;;4953069;29;20207;-75
2022/07/15 13:22:32;;;;;;;9.30;1.40;;;22.20;80.90;;;;;;4953228;28;20195;-73
2022/07/15 13:24:58;;;;;;;6.67;1.30;;;21.40;83.10;;;;;;4954040;29;20470;-75
2022/07/15 13:27:24;;;;;;;4.10;1.27;;;20.90;84.50;;;;;;4953924;29;20193;-82
2022/07/15 13:29:50;;;;;;;2.73;1.20;;;20.60;84.40;;;;;;4953672;28;20647;-75
2022/07/15 13:32:15;;;;;;;5.17;1.60;;;20.30;87.00;;;;;;4954074;28;20493;-75
2022/07/15 13:34:41;;;;;;;5.30;1.37;;;20.60;84.60;;;;;;4953957;29;20222;-78
2022/07/15 13:37:06;;;;;;;2.80;1.30;;;21.10;85.60;;;;;;4953598;28;20191;-76
2022/07/15 13:39:32;;;;;;;5.80;1.20;;;21.40;85.60;;;;;;4954868;28;20335;-75
2022/07/15 13:41:57;;;;;;;4.43;1.63;;;21.50;83.70;;;;;;4973581;28;20218;-76
2022/07/15 13:44:23;;;;;;;3.33;1.20;;;21.90;83.30;;;;;;4973548;28;20658;-75
2022/07/15 13:46:48;;;;;;;2.80;1.20;;;22.00;81.90;;;;;;4973239;28;20185;-75
2022/07/15 13:49:14;;;;;;;3.97;1.40;;;22.40;85.80;;;;;;4972346;28;20182;-75
2022/07/15 13:51:42;;;;;;;5.50;1.77;;;22.20;83.20;;;;;;4973206;28;20245;-79
2022/07/15 13:54:12;;;;;;;3.67;1.43;;;21.90;81.10;;;;;;4973070;28;20261;-75
2022/07/15 13:56:38;;;;;;;2.70;1.20;;;22.00;83.10;;;;;;4971858;28;20509;-77
2022/07/15 13:59:03;;;;;;;2.90;1.30;;;22.10;81.70;;;;;;4972722;28;20521;-75
2022/07/15 14:01:31;;;;;;;6.13;1.27;;;21.80;82.50;;;;;;4973025;28;20607;-75
2022/07/15 14:03:57;;;;;;;5.67;1.30;;;21.40;83.90;;;;;;4971807;28;20178;-75
2022/07/15 14:06:23;;;;;;;6.20;1.30;;;20.90;84.10;;;;;;4972605;28;20481;-75
2022/07/15 14:08:49;;;;;;;3.03;1.40;;;20.70;86.00;;;;;;4973686;28;20417;-79
2022/07/15 14:11:14;;;;;;;3.17;1.30;;;20.60;84.90;;;;;;4954063;28;20679;-75
2022/07/15 14:13:40;;;;;;;3.00;1.27;;;20.50;83.10;;;;;;4953738;29;20199;-78
2022/07/15 14:16:06;;;;;;;4.53;1.40;;;20.40;84.40;;;;;;4953525;29;20194;-74
2022/07/15 14:18:45;;;;;;;4.07;1.13;;;20.20;85.90;;;;;;4953224;28;20703;-76
2022/07/15 14:21:11;;;;;;;3.43;1.30;;;20.40;87.00;;;;;;4953551;28;20742;-76
2022/07/15 14:23:37;;;;;;;2.10;1.20;;;21.50;86.80;;;;;;4953354;29;20465;-76
2022/07/15 14:26:03;;;;;;;1.80;1.10;;;22.00;83.70;;;;;;4953511;29;20962;-77
2022/07/15 14:28:28;;;;;;;3.73;1.30;;;22.10;85.40;;;;;;4951726;29;20175;-76
2022/07/15 14:30:54;;;;;;;2.77;1.33;;;22.50;79.80;;;;;;4951933;28;20214;-76
2022/07/15 14:33:20;;;;;;;3.67;2.30;;;21.70;81.20;;;;;;4953255;29;20175;-76
2022/07/15 14:35:45;;;;;;;2.60;1.30;;;21.10;82.90;;;;;;4953764;28;20507;-76
2022/07/15 14:38:11;;;;;;;3.93;1.30;;;21.20;84.90;;;;;;4953107;29;20179;-77
2022/07/15 14:40:37;;;;;;;6.10;1.57;;;21.00;81.60;;;;;;4963925;28;20237;-76
2022/07/15 14:43:03;;;;;;;4.83;1.40;;;21.30;83.60;;;;;;4972848;28;20186;-76
2022/07/15 14:45:29;;;;;;;3.17;1.20;;;21.70;83.80;;;;;;4972837;28;20309;-76
2022/07/15 14:47:54;;;;;;;2.10;1.17;;;21.80;84.60;;;;;;4972547;28;20492;-76
2022/07/15 14:50:21;;;;;;;1.70;1.20;;;22.00;80.90;;;;;;4975569;28;20174;-76
2022/07/15 14:52:46;;;;;;;3.27;1.03;;;22.30;81.60;;;;;;4976110;28;20178;-76
2022/07/15 14:55:12;;;;;;;3.23;1.07;;;22.80;81.70;;;;;;4976232;28;20414;-77
2022/07/15 14:57:37;;;;;;;4.13;1.70;;;22.80;79.90;;;;;;4975991;28;20178;-77
2022/07/15 15:00:04;;;;;;;7.07;1.60;;;22.40;80.00;;;;;;4961661;28;20667;-76
2022/07/15 15:02:29;;;;;;;4.40;1.30;;;21.90;82.10;;;;;;4956664;28;20195;-76
2022/07/15 15:04:55;;;;;;;4.67;1.27;;;21.80;82.30;;;;;;4955617;28;20496;-76
2022/07/15 15:07:20;;;;;;;10.00;1.40;;;22.20;79.10;;;;;;4956528;29;20608;-76
2022/07/15 15:09:46;;;;;;;3.37;0.93;;;22.20;77.90;;;;;;4965066;28;20706;-77
2022/07/15 15:12:11;;;;;;;3.13;1.30;;;22.30;78.40;;;;;;4974667;28;20198;-76
2022/07/15 15:14:37;;;;;;;4.53;1.50;;;22.30;79.00;;;;;;4975717;28;20662;-76
2022/07/15 15:17:03;;;;;;;2.17;1.10;;;21.90;78.00;;;;;;4975758;28;20186;-76
2022/07/15 15:19:28;;;;;;;2.33;1.13;;;21.70;80.10;;;;;;4966009;28;20199;-77
2022/07/15 15:21:53;;;;;;;2.23;1.17;;;21.80;79.70;;;;;;4951555;29;20214;-76
2022/07/15 15:24:19;;;;;;;4.20;1.10;;;21.80;82.00;;;;;;4946531;29;20183;-76
2022/07/15 15:26:49;;;;;;;4.13;1.43;;;21.90;83.60;;;;;;4948187;29;20187;-79
2022/07/15 15:29:15;;;;;;;4.43;1.10;;;21.80;78.40;;;;;;4943126;29;20686;-77
2022/07/15 15:31:41;;;;;;;4.63;1.23;;;21.40;81.70;;;;;;4948808;28;20438;-79
2022/07/15 15:34:06;;;;;;;2.27;1.00;;;21.50;79.70;;;;;;4953183;29;20200;-78
2022/07/15 15:36:32;;;;;;;12.90;1.10;;;21.60;79.80;;;;;;4951260;29;20190;-79
2022/07/15 15:38:58;;;;;;;3.63;1.53;;;21.30;79.90;;;;;;4951981;28;20201;-79
2022/07/15 15:41:23;;;;;;;3.57;1.07;;;21.30;78.80;;;;;;4950462;28;20199;-80
2022/07/15 15:43:49;;;;;;;7.53;1.27;;;21.40;82.50;;;;;;4949398;28;20179;-80
2022/07/15 15:46:14;;;;;;;9.33;1.33;;;21.50;78.90;;;;;;4951716;29;20179;-79
2022/07/15 15:48:40;;;;;;;1.73;0.80;;;21.30;77.70;;;;;;4949619;28;20227;-80
2022/07/15 15:51:05;;;;;;;2.80;1.10;;;21.30;79.80;;;;;;4943003;29;20255;-78
2022/07/15 15:53:31;;;;;;;2.10;1.30;;;21.30;83.30;;;;;;4939203;29;20811;-77
2022/07/15 15:55:56;;;;;;;7.07;1.00;;;21.40;79.00;;;;;;4956178;29;20171;-77
2022/07/15 15:58:22;;;;;;;3.57;1.30;;;21.30;77.70;;;;;;4955480;29;20175;-78
2022/07/15 16:00:47;;;;;;;3.37;1.77;;;21.10;78.60;;;;;;4956147;28;20628;-77
2022/07/15 16:03:13;;;;;;;4.60;0.90;;;20.90;78.20;;;;;;4957933;28;20178;-77
2022/07/15 16:05:39;;;;;;;5.30;1.30;;;20.90;78.80;;;;;;4966052;28;20179;-77
2022/07/15 16:08:05;;;;;;;7.63;1.07;;;20.90;80.40;;;;;;4954808;29;20418;-77
2022/07/15 16:10:30;;;;;;;2.90;0.90;;;21.20;78.50;;;;;;4955335;28;20179;-79
2022/07/15 16:12:56;;;;;;;4.73;1.00;;;21.50;80.20;;;;;;4954485;28;20171;-77
2022/07/15 16:15:22;;;;;;;3.57;1.50;;;21.70;79.50;;;;;;4957487;29;20181;-78
2022/07/15 16:17:47;;;;;;;4.70;1.30;;;21.90;81.20;;;;;;4960746;29;20209;-77
2022/07/15 16:20:13;;;;;;;2.70;0.90;;;22.00;78.60;;;;;;4957409;28;20480;-77
2022/07/15 16:26:01;;;;;;;8.23;1.20;;;21.60;79.40;;;;;;4998282;28;20185;-78
2022/07/15 16:28:26;;;;;;;7.37;1.20;;;21.40;78.60;;;;;;4991700;28;20440;-79
2022/07/15 16:30:52;;;;;;;2.50;1.10;;;21.60;76.70;;;;;;4990515;28;20710;-79
2022/07/15 16:33:18;;;;;;;2.90;1.00;;;21.80;77.10;;;;;;4977749;28;20194;-79
2022/07/15 16:35:44;;;;;;;3.03;1.27;;;21.70;75.60;;;;;;4976372;28;20210;-78
2022/07/15 16:38:10;;;;;;;3.90;1.20;;;21.40;79.00;;;;;;4975349;28;20557;-78
2022/07/15 16:40:37;;;;;;;3.77;1.00;;;21.20;76.90;;;;;;4978386;28;20643;-78
2022/07/15 16:43:03;;;;;;;6.30;1.17;;;21.10;78.30;;;;;;4977515;28;20468;-79
2022/07/15 16:45:30;;;;;;;4.23;1.23;;;20.80;78.90;;;;;;4977370;28;20457;-79
2022/07/15 16:47:55;;;;;;;1.83;1.17;;;20.40;78.10;;;;;;4976621;28;20421;-80
2022/07/15 16:50:21;;;;;;;2.47;1.20;;;20.10;80.80;;;;;;4976592;28;20789;-79
2022/07/15 16:52:47;;;;;;;1.43;1.00;;;19.90;80.00;;;;;;4975805;28;20198;-75
2022/07/15 16:55:13;;;;;;;1.77;1.00;;;19.60;80.50;;;;;;4973857;28;20631;-78
2022/07/15 16:57:38;;;;;;;4.17;1.60;;;19.90;82.70;;;;;;4955218;28;20178;-79
2022/07/15 17:00:06;;;;;;;3.77;1.10;;;20.30;81.00;;;;;;4973647;28;20556;-75
2022/07/15 17:02:32;;;;;;;10.70;1.50;;;20.30;79.80;;;;;;4973733;28;20638;-76
2022/07/15 17:04:57;;;;;;;8.13;1.73;;;19.90;79.00;;;;;;4973693;28;20428;-75
2022/07/15 17:07:26;;;;;;;2.40;0.93;;;19.90;82.80;;;;;;4988889;28;20178;-76
2022/07/15 17:09:51;;;;;;;4.77;1.40;;;19.90;81.40;;;;;;4974402;28;20280;-76
2022/07/15 17:12:17;;;;;;;8.63;1.30;;;20.00;81.80;;;;;;4972888;28;20941;-79
2022/07/15 17:14:42;;;;;;;5.37;1.20;;;19.80;80.90;;;;;;4973571;28;20612;-75
2022/07/15 17:17:08;;;;;;;3.60;1.57;;;19.60;82.00;;;;;;4972388;28;20174;-76
2022/07/15 17:19:33;;;;;;;11.63;1.20;;;19.60;80.70;;;;;;4973118;28;20210;-76
2022/07/15 17:21:59;;;;;;;3.07;1.47;;;19.40;81.40;;;;;;4973493;28;20253;-76
2022/07/15 17:24:25;;;;;;;5.10;1.03;;;19.40;84.10;;;;;;4976670;28;20893;-74
2022/07/15 17:26:50;;;;;;;3.50;1.50;;;19.40;81.40;;;;;;4972218;28;20235;-74
2022/07/15 17:29:16;;;;;;;3.80;1.13;;;19.30;83.70;;;;;;4972735;28;20182;-77
2022/07/15 17:31:41;;;;;;;3.50;1.10;;;19.30;82.30;;;;;;4972698;28;20190;-78
2022/07/15 17:34:07;;;;;;;9.07;1.57;;;19.10;82.10;;;;;;4973308;28;20261;-75
2022/07/15 17:36:33;;;;;;;7.60;1.30;;;19.00;82.50;;;;;;4973361;28;20193;-75
2022/07/15 17:38:59;;;;;;;3.70;1.23;;;18.90;84.60;;;;;;4973016;28;20209;-75
2022/07/15 17:41:25;;;;;;;4.50;1.40;;;18.80;82.80;;;;;;4989991;28;20224;-76
2022/07/15 17:43:51;;;;;;;2.80;1.30;;;18.70;82.60;;;;;;4992500;28;20413;-76
2022/07/15 17:46:17;;;;;;;5.10;1.40;;;18.50;84.20;;;;;;4991131;28;20928;-76
2022/07/15 17:48:43;;;;;;;5.17;1.33;;;18.30;85.90;;;;;;4992325;28;20185;-76
2022/07/15 17:51:09;;;;;;;4.23;1.50;;;18.20;85.40;;;;;;4992516;28;20429;-75
2022/07/15 17:53:35;;;;;;;4.53;1.60;;;18.20;84.40;;;;;;4989708;28;20905;-76
2022/07/15 17:56:00;;;;;;;3.10;1.17;;;18.10;85.10;;;;;;4973303;28;20715;-76
2022/07/15 17:58:26;;;;;;;11.90;2.03;;;17.90;87.30;;;;;;4972766;28;20178;-74
2022/07/15 18:00:52;;;;;;;3.40;1.13;;;17.70;87.20;;;;;;4973374;28;20221;-75
2022/07/15 18:03:18;;;;;;;8.40;1.60;;;17.60;87.40;;;;;;4973279;28;20182;-75
2022/07/15 18:05:44;;;;;;;3.60;1.60;;;17.30;87.40;;;;;;4973367;28;20756;-74
2022/07/15 18:08:14;;;;;;;7.87;1.30;;;17.00;87.60;;;;;;4973073;28;20170;-73
2022/07/15 18:10:41;;;;;;;4.37;1.30;;;16.80;87.10;;;;;;4989912;28;20433;-74
2022/07/15 18:13:07;;;;;;;5.63;1.47;;;16.70;88.60;;;;;;4993023;28;20893;-73
2022/07/15 18:15:33;;;;;;;8.00;1.43;;;16.50;90.80;;;;;;4992626;28;20413;-74
2022/07/15 18:17:58;;;;;;;1.93;1.10;;;16.30;91.30;;;;;;4974916;28;20427;-74
2022/07/15 18:20:24;;;;;;;2.33;1.20;;;16.40;91.20;;;;;;4971822;28;20248;-74
2022/07/15 18:22:49;;;;;;;5.13;1.23;;;16.30;90.90;;;;;;4973012;28;20665;-75
2022/07/15 18:25:15;;;;;;;4.63;1.40;;;16.30;91.00;;;;;;4976127;28;20174;-73
2022/07/15 18:27:40;;;;;;;3.27;1.10;;;16.30;92.40;;;;;;4976623;28;20178;-74
2022/07/15 18:30:06;;;;;;;10.40;1.30;;;16.20;93.00;;;;;;4976890;28;20183;-75
2022/07/15 18:32:32;;;;;;;3.13;1.30;;;16.10;92.90;;;;;;4976497;28;20217;-74
2022/07/15 18:34:57;;;;;;;4.23;1.30;;;16.00;92.00;;;;;;4976341;28;20190;-74
2022/07/15 18:37:23;;;;;;;4.13;1.23;;;15.90;93.00;;;;;;4965950;28;20202;-78
2022/07/15 18:39:48;;;;;;;2.70;1.03;;;15.70;93.90;;;;;;4973703;28;20226;-75